sensor_id;sensor_type;location;lat;lon;timestamp;temperature;humidity
34644;DHT22;26931;43.498;-1.506;2023-06-14T00:01:48;22.40;97.10
34644;DHT22;26931;43.498;-1.506;2023-06-14T00:04:16;22.40;96.90
34644;DHT22;26931;43.498;-1.506;2023-06-14T00:06:46;22.30;96.90
34644;DHT22;26931;43.498;-1.506;2023-06-14T00:09:14;22.20;96.90
34644;DHT22;26931;43.498;-1.506;2023-06-14T00:11:43;22.20;96.90
34644;DHT22;26931;43.498;-1.506;2023-06-14T00:14:10;22.20;96.90
34644;DHT22;26931;43.498;-1.506;2023-06-14T00:16:36;22.30;96.90
34644;DHT22;26931;43.498;-1.506;2023-06-14T00:19:04;22.10;96.90
34644;DHT22;26931;43.498;-1.506;2023-06-14T00:21:31;22.00;96.90
34644;DHT22;26931;43.498;-1.506;2023-06-14T00:23:59;22.00;97.00
34644;DHT22;26931;43.498;-1.506;2023-06-14T00:26:25;21.90;97.10
34644;DHT22;26931;43.498;-1.506;2023-06-14T00:28:53;21.90;97.60
34644;DHT22;26931;43.498;-1.506;2023-06-14T00:31:19;22.10;97.40
34644;DHT22;26931;43.498;-1.506;2023-06-14T00:33:45;21.90;97.50
34644;DHT22;26931;43.498;-1.506;2023-06-14T00:36:11;21.80;97.50
34644;DHT22;26931;43.498;-1.506;2023-06-14T00:38:37;21.80;97.70
34644;DHT22;26931;43.498;-1.506;2023-06-14T00:41:03;22.00;98.00
34644;DHT22;26931;43.498;-1.506;2023-06-14T00:43:29;21.80;97.70
34644;DHT22;26931;43.498;-1.506;2023-06-14T00:45:55;21.80;97.90
34644;DHT22;26931;43.498;-1.506;2023-06-14T00:48:22;21.80;97.90
34644;DHT22;26931;43.498;-1.506;2023-06-14T00:50:50;21.80;98.00
34644;DHT22;26931;43.498;-1.506;2023-06-14T00:53:17;21.80;98.20
34644;DHT22;26931;43.498;-1.506;2023-06-14T00:55:43;21.90;98.40
34644;DHT22;26931;43.498;-1.506;2023-06-14T00:58:10;21.90;98.60
34644;DHT22;26931;43.498;-1.506;2023-06-14T01:00:37;22.00;98.70
34644;DHT22;26931;43.498;-1.506;2023-06-14T01:03:03;22.10;98.90
34644;DHT22;26931;43.498;-1.506;2023-06-14T01:05:30;22.00;99.00
34644;DHT22;26931;43.498;-1.506;2023-06-14T01:13:17;22.30;99.50
34644;DHT22;26931;43.498;-1.506;2023-06-14T01:15:47;22.40;99.60
34644;DHT22;26931;43.498;-1.506;2023-06-14T01:18:16;22.40;99.60
34644;DHT22;26931;43.498;-1.506;2023-06-14T01:20:45;22.40;99.70
34644;DHT22;26931;43.498;-1.506;2023-06-14T01:23:18;22.40;99.70
34644;DHT22;26931;43.498;-1.506;2023-06-14T01:25:45;22.50;99.80
34644;DHT22;26931;43.498;-1.506;2023-06-14T01:28:13;22.50;99.80
34644;DHT22;26931;43.498;-1.506;2023-06-14T01:30:44;22.50;99.90
34644;DHT22;26931;43.498;-1.506;2023-06-14T01:33:13;22.60;99.90
34644;DHT22;26931;43.498;-1.506;2023-06-14T01:35:46;22.60;99.90
34644;DHT22;26931;43.498;-1.506;2023-06-14T01:38:14;22.60;99.90
34644;DHT22;26931;43.498;-1.506;2023-06-14T01:40:42;22.60;99.90
34644;DHT22;26931;43.498;-1.506;2023-06-14T01:43:11;22.70;99.90
34644;DHT22;26931;43.498;-1.506;2023-06-14T01:45:44;22.80;99.90
34644;DHT22;26931;43.498;-1.506;2023-06-14T01:48:11;22.70;99.90
34644;DHT22;26931;43.498;-1.506;2023-06-14T01:50:37;22.70;99.90
34644;DHT22;26931;43.498;-1.506;2023-06-14T01:53:09;22.50;99.90
34644;DHT22;26931;43.498;-1.506;2023-06-14T01:55:35;22.60;99.90
34644;DHT22;26931;43.498;-1.506;2023-06-14T01:58:03;22.60;99.90
34644;DHT22;26931;43.498;-1.506;2023-06-14T02:00:30;22.70;99.90
34644;DHT22;26931;43.498;-1.506;2023-06-14T02:02:56;22.70;99.90
34644;DHT22;26931;43.498;-1.506;2023-06-14T02:05:22;22.80;99.90
34644;DHT22;26931;43.498;-1.506;2023-06-14T02:07:48;22.70;99.90
34644;DHT22;26931;43.498;-1.506;2023-06-14T02:10:16;22.70;99.90
34644;DHT22;26931;43.498;-1.506;2023-06-14T02:12:43;22.70;99.90
34644;DHT22;26931;43.498;-1.506;2023-06-14T02:15:10;22.70;99.90
34644;DHT22;26931;43.498;-1.506;2023-06-14T02:17:43;22.70;99.90
34644;DHT22;26931;43.498;-1.506;2023-06-14T02:20:09;22.80;99.90
34644;DHT22;26931;43.498;-1.506;2023-06-14T02:22:35;22.70;99.90
34644;DHT22;26931;43.498;-1.506;2023-06-14T02:25:01;22.80;99.90
34644;DHT22;26931;43.498;-1.506;2023-06-14T02:27:27;22.70;99.80
34644;DHT22;26931;43.498;-1.506;2023-06-14T02:29:53;22.70;99.80
34644;DHT22;26931;43.498;-1.506;2023-06-14T02:32:19;22.80;99.90
34644;DHT22;26931;43.498;-1.506;2023-06-14T02:34:46;22.70;99.80
34644;DHT22;26931;43.498;-1.506;2023-06-14T02:37:15;22.70;99.80
34644;DHT22;26931;43.498;-1.506;2023-06-14T02:39:42;22.90;99.80
34644;DHT22;26931;43.498;-1.506;2023-06-14T02:42:08;22.70;99.80
34644;DHT22;26931;43.498;-1.506;2023-06-14T02:44:34;22.70;99.70
34644;DHT22;26931;43.498;-1.506;2023-06-14T02:47:01;22.90;99.80
34644;DHT22;26931;43.498;-1.506;2023-06-14T02:49:27;22.70;99.70
34644;DHT22;26931;43.498;-1.506;2023-06-14T02:51:53;22.70;99.70
34644;DHT22;26931;43.498;-1.506;2023-06-14T02:54:20;22.70;99.60
34644;DHT22;26931;43.498;-1.506;2023-06-14T02:56:46;22.70;99.60
34644;DHT22;26931;43.498;-1.506;2023-06-14T02:59:12;22.70;99.50
34644;DHT22;26931;43.498;-1.506;2023-06-14T03:01:40;22.70;99.50
34644;DHT22;26931;43.498;-1.506;2023-06-14T03:04:10;22.70;99.40
34644;DHT22;26931;43.498;-1.506;2023-06-14T03:06:36;22.70;99.40
34644;DHT22;26931;43.498;-1.506;2023-06-14T03:09:03;22.70;99.40
34644;DHT22;26931;43.498;-1.506;2023-06-14T03:11:35;22.80;99.30
34644;DHT22;26931;43.498;-1.506;2023-06-14T03:14:01;22.70;99.30
34644;DHT22;26931;43.498;-1.506;2023-06-14T03:16:29;22.70;99.20
34644;DHT22;26931;43.498;-1.506;2023-06-14T03:18:57;22.70;99.20
34644;DHT22;26931;43.498;-1.506;2023-06-14T03:21:23;22.70;99.10
34644;DHT22;26931;43.498;-1.506;2023-06-14T03:23:50;22.70;99.10
34644;DHT22;26931;43.498;-1.506;2023-06-14T03:26:16;22.70;99.10
34644;DHT22;26931;43.498;-1.506;2023-06-14T03:28:46;22.70;99.10
34644;DHT22;26931;43.498;-1.506;2023-06-14T03:31:13;22.70;99.10
34644;DHT22;26931;43.498;-1.506;2023-06-14T03:33:39;22.70;99.10
34644;DHT22;26931;43.498;-1.506;2023-06-14T03:36:06;22.60;99.00
34644;DHT22;26931;43.498;-1.506;2023-06-14T03:38:32;22.70;99.10
34644;DHT22;26931;43.498;-1.506;2023-06-14T03:40:58;22.70;99.00
34644;DHT22;26931;43.498;-1.506;2023-06-14T03:43:25;22.60;99.00
34644;DHT22;26931;43.498;-1.506;2023-06-14T03:45:51;22.70;99.00
34644;DHT22;26931;43.498;-1.506;2023-06-14T03:48:17;22.70;99.00
34644;DHT22;26931;43.498;-1.506;2023-06-14T03:50:43;22.70;99.00
34644;DHT22;26931;43.498;-1.506;2023-06-14T03:53:10;22.70;99.00
34644;DHT22;26931;43.498;-1.506;2023-06-14T03:55:36;22.70;99.00
34644;DHT22;26931;43.498;-1.506;2023-06-14T03:58:03;22.60;98.90
34644;DHT22;26931;43.498;-1.506;2023-06-14T04:00:30;22.70;98.90
34644;DHT22;26931;43.498;-1.506;2023-06-14T04:02:57;22.70;98.90
34644;DHT22;26931;43.498;-1.506;2023-06-14T04:05:24;22.60;98.90
34644;DHT22;26931;43.498;-1.506;2023-06-14T04:07:52;22.70;98.90
34644;DHT22;26931;43.498;-1.506;2023-06-14T04:10:21;22.70;98.80
34644;DHT22;26931;43.498;-1.506;2023-06-14T04:12:47;22.70;98.80
34644;DHT22;26931;43.498;-1.506;2023-06-14T04:15:14;22.70;98.80
34644;DHT22;26931;43.498;-1.506;2023-06-14T04:17:40;22.70;98.70
34644;DHT22;26931;43.498;-1.506;2023-06-14T04:20:07;22.70;98.70
34644;DHT22;26931;43.498;-1.506;2023-06-14T04:22:35;22.60;98.60
34644;DHT22;26931;43.498;-1.506;2023-06-14T04:25:02;22.60;98.60
34644;DHT22;26931;43.498;-1.506;2023-06-14T04:27:28;22.70;98.60
34644;DHT22;26931;43.498;-1.506;2023-06-14T04:29:56;22.70;98.60
34644;DHT22;26931;43.498;-1.506;2023-06-14T04:32:26;22.60;98.50
34644;DHT22;26931;43.498;-1.506;2023-06-14T04:34:54;22.70;98.50
34644;DHT22;26931;43.498;-1.506;2023-06-14T04:37:20;22.60;98.40
34644;DHT22;26931;43.498;-1.506;2023-06-14T04:39:47;22.60;98.40
34644;DHT22;26931;43.498;-1.506;2023-06-14T04:42:13;22.60;98.40
34644;DHT22;26931;43.498;-1.506;2023-06-14T04:44:43;22.60;98.40
34644;DHT22;26931;43.498;-1.506;2023-06-14T04:47:13;22.60;98.30
34644;DHT22;26931;43.498;-1.506;2023-06-14T04:49:40;22.60;98.30
34644;DHT22;26931;43.498;-1.506;2023-06-14T04:52:07;22.60;98.30
34644;DHT22;26931;43.498;-1.506;2023-06-14T04:54:36;22.60;98.20
34644;DHT22;26931;43.498;-1.506;2023-06-14T04:57:09;22.70;98.20
34644;DHT22;26931;43.498;-1.506;2023-06-14T04:59:41;22.60;98.20
34644;DHT22;26931;43.498;-1.506;2023-06-14T05:02:07;22.70;98.20
34644;DHT22;26931;43.498;-1.506;2023-06-14T05:04:34;22.70;98.20
34644;DHT22;26931;43.498;-1.506;2023-06-14T05:07:08;22.70;98.20
34644;DHT22;26931;43.498;-1.506;2023-06-14T05:09:35;22.60;98.20
34644;DHT22;26931;43.498;-1.506;2023-06-14T05:12:03;22.60;98.10
34644;DHT22;26931;43.498;-1.506;2023-06-14T05:14:29;22.80;98.20
34644;DHT22;26931;43.498;-1.506;2023-06-14T05:16:55;22.60;98.10
34644;DHT22;26931;43.498;-1.506;2023-06-14T05:19:21;22.70;98.00
34644;DHT22;26931;43.498;-1.506;2023-06-14T05:21:47;22.60;98.00
34644;DHT22;26931;43.498;-1.506;2023-06-14T05:24:14;22.60;97.90
34644;DHT22;26931;43.498;-1.506;2023-06-14T05:26:40;22.60;97.90
34644;DHT22;26931;43.498;-1.506;2023-06-14T05:29:06;22.70;97.90
34644;DHT22;26931;43.498;-1.506;2023-06-14T05:31:32;22.70;97.80
34644;DHT22;26931;43.498;-1.506;2023-06-14T05:33:58;22.70;97.80
34644;DHT22;26931;43.498;-1.506;2023-06-14T05:36:25;22.60;97.70
34644;DHT22;26931;43.498;-1.506;2023-06-14T05:38:53;22.70;97.70
34644;DHT22;26931;43.498;-1.506;2023-06-14T05:41:28;22.70;97.70
34644;DHT22;26931;43.498;-1.506;2023-06-14T05:43:55;22.70;97.70
34644;DHT22;26931;43.498;-1.506;2023-06-14T05:46:23;22.70;97.70
34644;DHT22;26931;43.498;-1.506;2023-06-14T05:48:54;22.70;97.70
34644;DHT22;26931;43.498;-1.506;2023-06-14T05:51:21;22.70;97.70
34644;DHT22;26931;43.498;-1.506;2023-06-14T05:53:48;22.70;97.60
34644;DHT22;26931;43.498;-1.506;2023-06-14T05:56:15;22.70;97.70
34644;DHT22;26931;43.498;-1.506;2023-06-14T05:58:43;22.90;97.70
34644;DHT22;26931;43.498;-1.506;2023-06-14T06:01:10;22.70;97.60
34644;DHT22;26931;43.498;-1.506;2023-06-14T06:03:36;22.80;97.60
34644;DHT22;26931;43.498;-1.506;2023-06-14T06:06:02;22.80;97.70
34644;DHT22;26931;43.498;-1.506;2023-06-14T06:08:29;22.80;97.70
34644;DHT22;26931;43.498;-1.506;2023-06-14T06:10:55;23.00;98.10
34644;DHT22;26931;43.498;-1.506;2023-06-14T06:13:21;22.80;97.80
34644;DHT22;26931;43.498;-1.506;2023-06-14T06:15:47;22.90;97.80
34644;DHT22;26931;43.498;-1.506;2023-06-14T06:18:13;22.80;97.70
34644;DHT22;26931;43.498;-1.506;2023-06-14T06:20:39;22.90;97.70
34644;DHT22;26931;43.498;-1.506;2023-06-14T06:23:05;22.90;97.70
34644;DHT22;26931;43.498;-1.506;2023-06-14T06:25:31;23.10;97.70
34644;DHT22;26931;43.498;-1.506;2023-06-14T06:27:58;22.90;97.60
34644;DHT22;26931;43.498;-1.506;2023-06-14T06:30:24;22.90;97.60
34644;DHT22;26931;43.498;-1.506;2023-06-14T06:32:51;22.90;97.60
34644;DHT22;26931;43.498;-1.506;2023-06-14T06:35:18;22.90;97.60
34644;DHT22;26931;43.498;-1.506;2023-06-14T06:37:44;22.90;97.50
34644;DHT22;26931;43.498;-1.506;2023-06-14T06:40:11;22.90;97.50
34644;DHT22;26931;43.498;-1.506;2023-06-14T06:42:37;22.70;97.40
34644;DHT22;26931;43.498;-1.506;2023-06-14T06:45:04;22.90;97.40
34644;DHT22;26931;43.498;-1.506;2023-06-14T06:47:30;22.90;97.40
34644;DHT22;26931;43.498;-1.506;2023-06-14T06:49:56;23.10;97.30
34644;DHT22;26931;43.498;-1.506;2023-06-14T06:52:23;22.90;97.20
34644;DHT22;26931;43.498;-1.506;2023-06-14T06:54:49;22.90;97.20
34644;DHT22;26931;43.498;-1.506;2023-06-14T06:57:16;22.80;97.10
34644;DHT22;26931;43.498;-1.506;2023-06-14T06:59:42;22.80;97.10
34644;DHT22;26931;43.498;-1.506;2023-06-14T07:02:08;22.90;97.10
34644;DHT22;26931;43.498;-1.506;2023-06-14T07:04:34;22.90;97.00
34644;DHT22;26931;43.498;-1.506;2023-06-14T07:07:00;23.10;97.00
34644;DHT22;26931;43.498;-1.506;2023-06-14T07:09:26;22.90;97.00
34644;DHT22;26931;43.498;-1.506;2023-06-14T07:11:53;22.90;96.90
34644;DHT22;26931;43.498;-1.506;2023-06-14T07:14:19;22.90;97.20
34644;DHT22;26931;43.498;-1.506;2023-06-14T07:16:45;22.90;96.80
34644;DHT22;26931;43.498;-1.506;2023-06-14T07:19:11;22.90;96.70
34644;DHT22;26931;43.498;-1.506;2023-06-14T07:21:37;22.80;96.60
34644;DHT22;26931;43.498;-1.506;2023-06-14T07:24:07;22.80;96.60
34644;DHT22;26931;43.498;-1.506;2023-06-14T07:26:33;22.80;96.50
34644;DHT22;26931;43.498;-1.506;2023-06-14T07:28:59;22.90;96.30
34644;DHT22;26931;43.498;-1.506;2023-06-14T07:31:25;22.80;96.10
34644;DHT22;26931;43.498;-1.506;2023-06-14T07:33:52;22.70;96.10
34644;DHT22;26931;43.498;-1.506;2023-06-14T07:36:18;22.70;96.10
34644;DHT22;26931;43.498;-1.506;2023-06-14T07:38:44;22.60;96.10
34644;DHT22;26931;43.498;-1.506;2023-06-14T07:41:11;22.60;96.20
34644;DHT22;26931;43.498;-1.506;2023-06-14T07:43:36;22.60;96.20
34644;DHT22;26931;43.498;-1.506;2023-06-14T07:46:02;22.60;96.10
34644;DHT22;26931;43.498;-1.506;2023-06-14T07:48:28;22.60;96.20
34644;DHT22;26931;43.498;-1.506;2023-06-14T07:50:54;22.60;96.20
34644;DHT22;26931;43.498;-1.506;2023-06-14T07:53:20;22.50;96.20
34644;DHT22;26931;43.498;-1.506;2023-06-14T07:55:46;22.50;96.20
34644;DHT22;26931;43.498;-1.506;2023-06-14T07:58:12;22.50;96.30
34644;DHT22;26931;43.498;-1.506;2023-06-14T08:00:38;22.50;96.20
34644;DHT22;26931;43.498;-1.506;2023-06-14T08:03:04;22.50;96.10
34644;DHT22;26931;43.498;-1.506;2023-06-14T08:05:30;22.40;96.00
34644;DHT22;26931;43.498;-1.506;2023-06-14T08:07:56;22.50;96.00
34644;DHT22;26931;43.498;-1.506;2023-06-14T08:10:22;22.50;96.00
34644;DHT22;26931;43.498;-1.506;2023-06-14T08:12:48;22.50;96.00
34644;DHT22;26931;43.498;-1.506;2023-06-14T08:15:16;22.50;96.00
34644;DHT22;26931;43.498;-1.506;2023-06-14T08:17:43;22.50;95.90
34644;DHT22;26931;43.498;-1.506;2023-06-14T08:20:09;22.50;95.90
34644;DHT22;26931;43.498;-1.506;2023-06-14T08:22:36;22.50;95.80
34644;DHT22;26931;43.498;-1.506;2023-06-14T08:25:03;22.50;95.80
34644;DHT22;26931;43.498;-1.506;2023-06-14T08:27:29;22.50;95.80
34644;DHT22;26931;43.498;-1.506;2023-06-14T08:29:55;22.50;95.80
34644;DHT22;26931;43.498;-1.506;2023-06-14T08:32:22;22.50;95.80
34644;DHT22;26931;43.498;-1.506;2023-06-14T08:34:47;22.60;95.80
34644;DHT22;26931;43.498;-1.506;2023-06-14T08:37:13;22.60;95.70
34644;DHT22;26931;43.498;-1.506;2023-06-14T08:39:39;22.60;95.70
34644;DHT22;26931;43.498;-1.506;2023-06-14T08:42:06;22.60;95.70
34644;DHT22;26931;43.498;-1.506;2023-06-14T08:44:33;22.60;95.70
34644;DHT22;26931;43.498;-1.506;2023-06-14T08:47:02;22.70;95.60
34644;DHT22;26931;43.498;-1.506;2023-06-14T08:49:29;22.70;95.60
34644;DHT22;26931;43.498;-1.506;2023-06-14T08:51:58;22.70;95.70
34644;DHT22;26931;43.498;-1.506;2023-06-14T08:54:28;22.70;95.70
34644;DHT22;26931;43.498;-1.506;2023-06-14T08:57:00;22.80;95.70
34644;DHT22;26931;43.498;-1.506;2023-06-14T08:59:26;22.90;95.70
34644;DHT22;26931;43.498;-1.506;2023-06-14T09:01:53;23.00;95.70
34644;DHT22;26931;43.498;-1.506;2023-06-14T09:04:23;23.00;95.60
34644;DHT22;26931;43.498;-1.506;2023-06-14T09:07:13;23.10;95.50
34644;DHT22;26931;43.498;-1.506;2023-06-14T09:09:40;23.40;95.50
34644;DHT22;26931;43.498;-1.506;2023-06-14T09:12:13;23.20;95.50
34644;DHT22;26931;43.498;-1.506;2023-06-14T09:14:39;23.20;95.40
34644;DHT22;26931;43.498;-1.506;2023-06-14T09:17:07;23.30;95.40
34644;DHT22;26931;43.498;-1.506;2023-06-14T09:19:34;23.30;95.40
34644;DHT22;26931;43.498;-1.506;2023-06-14T09:22:03;23.30;95.30
34644;DHT22;26931;43.498;-1.506;2023-06-14T09:24:30;23.30;95.10
34644;DHT22;26931;43.498;-1.506;2023-06-14T09:26:56;23.30;95.00
34644;DHT22;26931;43.498;-1.506;2023-06-14T09:29:23;23.30;94.90
34644;DHT22;26931;43.498;-1.506;2023-06-14T09:31:49;23.40;94.90
34644;DHT22;26931;43.498;-1.506;2023-06-14T09:34:16;23.40;94.90
34644;DHT22;26931;43.498;-1.506;2023-06-14T09:36:45;23.40;94.80
34644;DHT22;26931;43.498;-1.506;2023-06-14T09:39:10;23.50;94.80
34644;DHT22;26931;43.498;-1.506;2023-06-14T09:41:42;23.50;94.70
34644;DHT22;26931;43.498;-1.506;2023-06-14T09:44:10;23.50;94.60
34644;DHT22;26931;43.498;-1.506;2023-06-14T09:46:37;23.50;94.50
34644;DHT22;26931;43.498;-1.506;2023-06-14T09:49:04;23.50;94.40
34644;DHT22;26931;43.498;-1.506;2023-06-14T09:51:30;23.50;94.30
34644;DHT22;26931;43.498;-1.506;2023-06-14T09:54:01;23.50;94.20
34644;DHT22;26931;43.498;-1.506;2023-06-14T09:56:36;23.50;94.20
34644;DHT22;26931;43.498;-1.506;2023-06-14T09:59:06;23.50;94.10
34644;DHT22;26931;43.498;-1.506;2023-06-14T10:01:35;23.70;94.10
34644;DHT22;26931;43.498;-1.506;2023-06-14T10:04:07;23.50;93.90
34644;DHT22;26931;43.498;-1.506;2023-06-14T10:06:37;23.50;93.90
34644;DHT22;26931;43.498;-1.506;2023-06-14T10:09:04;23.40;93.70
34644;DHT22;26931;43.498;-1.506;2023-06-14T10:11:33;23.40;93.70
34644;DHT22;26931;43.498;-1.506;2023-06-14T10:14:01;23.40;93.60
34644;DHT22;26931;43.498;-1.506;2023-06-14T10:19:55;23.40;93.50
34644;DHT22;26931;43.498;-1.506;2023-06-14T10:22:32;23.30;93.40
34644;DHT22;26931;43.498;-1.506;2023-06-14T10:25:01;23.30;93.50
34644;DHT22;26931;43.498;-1.506;2023-06-14T10:27:27;23.30;93.50
34644;DHT22;26931;43.498;-1.506;2023-06-14T10:32:20;23.40;93.60
34644;DHT22;26931;43.498;-1.506;2023-06-14T10:34:53;23.40;93.60
34644;DHT22;26931;43.498;-1.506;2023-06-14T10:37:20;23.40;93.50
34644;DHT22;26931;43.498;-1.506;2023-06-14T10:39:46;23.40;93.50
34644;DHT22;26931;43.498;-1.506;2023-06-14T10:42:13;23.40;93.40
34644;DHT22;26931;43.498;-1.506;2023-06-14T10:44:43;23.40;93.30
34644;DHT22;26931;43.498;-1.506;2023-06-14T10:47:30;23.30;93.20
34644;DHT22;26931;43.498;-1.506;2023-06-14T10:50:05;23.30;93.10
34644;DHT22;26931;43.498;-1.506;2023-06-14T10:52:41;23.20;93.20
34644;DHT22;26931;43.498;-1.506;2023-06-14T10:57:39;23.40;93.20
34644;DHT22;26931;43.498;-1.506;2023-06-14T11:00:06;23.40;93.20
34644;DHT22;26931;43.498;-1.506;2023-06-14T11:05:51;23.30;93.20
34644;DHT22;26931;43.498;-1.506;2023-06-14T11:08:29;23.50;93.30
34644;DHT22;26931;43.498;-1.506;2023-06-14T11:11:06;23.40;93.20
34644;DHT22;26931;43.498;-1.506;2023-06-14T11:13:32;23.50;93.30
34644;DHT22;26931;43.498;-1.506;2023-06-14T11:15:59;23.40;93.20
34644;DHT22;26931;43.498;-1.506;2023-06-14T11:18:25;23.50;93.20
34644;DHT22;26931;43.498;-1.506;2023-06-14T11:20:52;23.50;93.20
34644;DHT22;26931;43.498;-1.506;2023-06-14T11:23:19;23.50;93.10
34644;DHT22;26931;43.498;-1.506;2023-06-14T11:25:51;23.60;93.10
34644;DHT22;26931;43.498;-1.506;2023-06-14T11:28:17;23.60;92.90
34644;DHT22;26931;43.498;-1.506;2023-06-14T11:30:45;23.50;92.80
34644;DHT22;26931;43.498;-1.506;2023-06-14T11:33:17;23.50;92.70
34644;DHT22;26931;43.498;-1.506;2023-06-14T11:35:44;23.50;92.70
34644;DHT22;26931;43.498;-1.506;2023-06-14T11:38:10;23.50;92.70
34644;DHT22;26931;43.498;-1.506;2023-06-14T11:40:38;23.50;92.70
34644;DHT22;26931;43.498;-1.506;2023-06-14T11:43:04;23.50;92.70
34644;DHT22;26931;43.498;-1.506;2023-06-14T11:45:31;23.50;92.70
34644;DHT22;26931;43.498;-1.506;2023-06-14T11:47:58;23.50;92.60
34644;DHT22;26931;43.498;-1.506;2023-06-14T11:50:25;23.50;92.60
34644;DHT22;26931;43.498;-1.506;2023-06-14T11:52:59;23.70;92.70
34644;DHT22;26931;43.498;-1.506;2023-06-14T11:55:38;23.50;92.60
34644;DHT22;26931;43.498;-1.506;2023-06-14T11:58:06;23.50;92.60
34644;DHT22;26931;43.498;-1.506;2023-06-14T12:00:32;23.60;92.50
34644;DHT22;26931;43.498;-1.506;2023-06-14T12:02:58;23.50;92.50
34644;DHT22;26931;43.498;-1.506;2023-06-14T12:05:24;23.40;92.40
34644;DHT22;26931;43.498;-1.506;2023-06-14T12:07:58;23.40;92.40
34644;DHT22;26931;43.498;-1.506;2023-06-14T12:10:25;23.50;92.40
34644;DHT22;26931;43.498;-1.506;2023-06-14T12:12:57;23.50;92.40
34644;DHT22;26931;43.498;-1.506;2023-06-14T12:15:24;23.50;92.40
34644;DHT22;26931;43.498;-1.506;2023-06-14T12:17:50;23.50;92.40
34644;DHT22;26931;43.498;-1.506;2023-06-14T12:20:18;23.50;92.40
34644;DHT22;26931;43.498;-1.506;2023-06-14T12:27:57;23.50;92.70
34644;DHT22;26931;43.498;-1.506;2023-06-14T12:30:23;23.50;92.70
34644;DHT22;26931;43.498;-1.506;2023-06-14T12:32:49;23.50;92.70
34644;DHT22;26931;43.498;-1.506;2023-06-14T12:35:17;23.50;92.70
34644;DHT22;26931;43.498;-1.506;2023-06-14T12:37:44;23.50;92.70
34644;DHT22;26931;43.498;-1.506;2023-06-14T12:40:11;23.50;92.70
34644;DHT22;26931;43.498;-1.506;2023-06-14T12:42:37;23.50;92.60
34644;DHT22;26931;43.498;-1.506;2023-06-14T12:45:03;23.50;92.60
34644;DHT22;26931;43.498;-1.506;2023-06-14T12:47:29;23.50;92.60
34644;DHT22;26931;43.498;-1.506;2023-06-14T12:49:56;23.50;92.60
34644;DHT22;26931;43.498;-1.506;2023-06-14T12:52:22;23.60;92.70
34644;DHT22;26931;43.498;-1.506;2023-06-14T12:54:48;23.60;92.70
34644;DHT22;26931;43.498;-1.506;2023-06-14T12:57:13;23.70;92.70
34644;DHT22;26931;43.498;-1.506;2023-06-14T12:59:39;23.70;92.70
34644;DHT22;26931;43.498;-1.506;2023-06-14T13:02:19;23.70;92.60
34644;DHT22;26931;43.498;-1.506;2023-06-14T13:04:46;23.80;92.60
34644;DHT22;26931;43.498;-1.506;2023-06-14T13:07:11;23.80;92.50
34644;DHT22;26931;43.498;-1.506;2023-06-14T13:09:38;23.80;92.50
34644;DHT22;26931;43.498;-1.506;2023-06-14T13:12:03;23.80;92.30
34644;DHT22;26931;43.498;-1.506;2023-06-14T13:14:29;23.80;92.10
34644;DHT22;26931;43.498;-1.506;2023-06-14T13:16:55;23.80;92.10
34644;DHT22;26931;43.498;-1.506;2023-06-14T13:19:21;23.90;92.10
34644;DHT22;26931;43.498;-1.506;2023-06-14T13:21:48;23.80;92.00
34644;DHT22;26931;43.498;-1.506;2023-06-14T13:24:14;23.90;92.10
34644;DHT22;26931;43.498;-1.506;2023-06-14T13:26:40;23.90;92.00
34644;DHT22;26931;43.498;-1.506;2023-06-14T13:29:06;23.90;92.10
34644;DHT22;26931;43.498;-1.506;2023-06-14T13:31:31;23.90;92.00
34644;DHT22;26931;43.498;-1.506;2023-06-14T13:33:57;23.90;92.10
34644;DHT22;26931;43.498;-1.506;2023-06-14T13:36:23;23.90;92.10
34644;DHT22;26931;43.498;-1.506;2023-06-14T13:38:48;23.70;91.90
34644;DHT22;26931;43.498;-1.506;2023-06-14T13:41:14;23.90;91.90
34644;DHT22;26931;43.498;-1.506;2023-06-14T13:43:40;23.90;91.90
34644;DHT22;26931;43.498;-1.506;2023-06-14T13:46:06;23.90;91.80
34644;DHT22;26931;43.498;-1.506;2023-06-14T13:48:32;23.90;91.70
34644;DHT22;26931;43.498;-1.506;2023-06-14T13:50:59;23.90;91.70
34644;DHT22;26931;43.498;-1.506;2023-06-14T13:53:25;23.90;91.70
34644;DHT22;26931;43.498;-1.506;2023-06-14T13:55:51;23.90;91.60
34644;DHT22;26931;43.498;-1.506;2023-06-14T13:58:18;23.90;91.60
34644;DHT22;26931;43.498;-1.506;2023-06-14T14:00:44;23.90;91.70
34644;DHT22;26931;43.498;-1.506;2023-06-14T14:03:10;23.90;91.60
34644;DHT22;26931;43.498;-1.506;2023-06-14T14:05:36;23.80;91.60
34644;DHT22;26931;43.498;-1.506;2023-06-14T14:08:03;23.90;91.50
34644;DHT22;26931;43.498;-1.506;2023-06-14T14:10:29;23.90;91.50
34644;DHT22;26931;43.498;-1.506;2023-06-14T14:12:55;23.80;91.40
34644;DHT22;26931;43.498;-1.506;2023-06-14T14:15:22;23.80;91.30
34644;DHT22;26931;43.498;-1.506;2023-06-14T14:17:47;23.80;91.30
34644;DHT22;26931;43.498;-1.506;2023-06-14T14:20:13;23.80;91.30
34644;DHT22;26931;43.498;-1.506;2023-06-14T14:22:42;23.80;91.30
34644;DHT22;26931;43.498;-1.506;2023-06-14T14:25:08;23.90;91.30
34644;DHT22;26931;43.498;-1.506;2023-06-14T14:27:34;23.90;91.20
34644;DHT22;26931;43.498;-1.506;2023-06-14T14:30:00;23.90;91.10
34644;DHT22;26931;43.498;-1.506;2023-06-14T14:32:25;23.90;91.00
34644;DHT22;26931;43.498;-1.506;2023-06-14T14:34:51;23.90;90.90
34644;DHT22;26931;43.498;-1.506;2023-06-14T14:37:17;23.90;90.80
34644;DHT22;26931;43.498;-1.506;2023-06-14T14:39:44;23.90;90.90
34644;DHT22;26931;43.498;-1.506;2023-06-14T14:42:11;23.90;91.00
34644;DHT22;26931;43.498;-1.506;2023-06-14T14:44:38;23.80;90.90
34644;DHT22;26931;43.498;-1.506;2023-06-14T14:47:04;23.90;91.00
34644;DHT22;26931;43.498;-1.506;2023-06-14T14:49:31;23.90;91.10
34644;DHT22;26931;43.498;-1.506;2023-06-14T14:51:57;23.90;91.00
34644;DHT22;26931;43.498;-1.506;2023-06-14T14:54:23;23.90;91.00
34644;DHT22;26931;43.498;-1.506;2023-06-14T14:56:54;23.80;91.00
34644;DHT22;26931;43.498;-1.506;2023-06-14T14:59:20;23.70;90.90
34644;DHT22;26931;43.498;-1.506;2023-06-14T15:01:47;23.80;91.00
34644;DHT22;26931;43.498;-1.506;2023-06-14T15:04:13;23.80;91.00
34644;DHT22;26931;43.498;-1.506;2023-06-14T15:06:39;23.80;91.30
34644;DHT22;26931;43.498;-1.506;2023-06-14T15:09:06;23.80;91.10
34644;DHT22;26931;43.498;-1.506;2023-06-14T15:11:32;23.80;91.10
34644;DHT22;26931;43.498;-1.506;2023-06-14T15:13:58;23.90;91.20
34644;DHT22;26931;43.498;-1.506;2023-06-14T15:16:24;23.80;91.20
34644;DHT22;26931;43.498;-1.506;2023-06-14T15:18:50;23.80;91.20
34644;DHT22;26931;43.498;-1.506;2023-06-14T15:21:16;23.70;91.10
34644;DHT22;26931;43.498;-1.506;2023-06-14T15:23:47;23.70;91.10
34644;DHT22;26931;43.498;-1.506;2023-06-14T15:26:13;23.70;91.20
34644;DHT22;26931;43.498;-1.506;2023-06-14T15:28:39;23.70;91.20
34644;DHT22;26931;43.498;-1.506;2023-06-14T15:31:05;23.70;91.30
34644;DHT22;26931;43.498;-1.506;2023-06-14T15:33:30;23.70;91.30
34644;DHT22;26931;43.498;-1.506;2023-06-14T15:35:57;23.70;91.30
34644;DHT22;26931;43.498;-1.506;2023-06-14T15:38:23;23.60;91.30